Nære METAR værraporter

   
ENGM - Oslo
Oppdatert: 27-01-2020 13:20
Lett Regn, Overskyet  
Lett Regn, Overskyet  
   Vind: SSØ 5.7 m/s
Vind: SSØ 5.7 m/s
Temperatur: 3°C
Wind Chill: -2°C
Duggpunkt: 3°C
Luftfuktighet: 100%
Barometer: 996 hPa
Skyer: Overskyet
Sikt: 9 km
Detaljer skyer: Delvis skyet 121.9 m,
Overskyet 182.9 m
ENGM 271220Z 15011KT 9000 -RA SCT004 OVC006 03/03 Q0996 TEMPO 4000 RA BR BKN004
ENTO - Sandefjord
Oppdatert: 27-01-2020 13:20
Regn, Overskyet  
Regn, Overskyet  
   Vind: Sør 7.2 m/s
Vind: Sør 7.2 m/s
Temperatur: 5°C
Wind Chill: 1°C
Duggpunkt: 5°C
Luftfuktighet: 100%
Barometer: 996 hPa
Skyer: Overskyet
Sikt: 4.6 km
Detaljer skyer: For det meste Overskyet 91.4 m,
Overskyet 182.9 m
ENTO 271220Z 17014KT 4600 RA BKN003 OVC006 05/05 Q0996 TEMPO 6000 -RA BKN006
ENNO - Notodden
Oppdatert: 27-01-2020 12:50
Lett Regn, For det meste Overskyet  
Lett Regn, For det meste Overskyet  
   Vind: ØSØ 2.1 m/s
Vind: ØSØ 2.1 m/s
Temperatur: 5°C
Wind Chill: 3°C
Duggpunkt: 4°C
Luftfuktighet: 93%
Barometer: 995 hPa
Skyer: For det meste Overskyet
Sikt: 9 km
Detaljer skyer: Noen skyer 304.8 m,
For det meste Overskyet 457.2 m,
For det meste Overskyet 762 m
ENNO 271150Z 11004KT 9000 -RA FEW010 BKN015 BKN025 05/04 Q0995
ENRY - Rygge
Oppdatert: 27-01-2020 13:20
Lett Regn, Overskyet  
Lett Regn, Overskyet  
   Vind: Sør 6.7 m/s
Vind: Sør 6.7 m/s
Temperatur: 5°C
Wind Chill: 1°C
Duggpunkt: 4°C
Luftfuktighet: 93%
Barometer: 998 hPa
Skyer: Overskyet
Sikt: 8 km
Detaljer skyer: Noen skyer 243.8 m,
For det meste Overskyet 457.2 m,
Overskyet 640.1 m
ENRY 271220Z 17013KT 8000 -RA FEW008 BKN015 OVC021 05/04 Q0998 TEMPO RA BKN008
ENSN - Skien
Oppdatert: 09-11-2015 09:50
Oppdatert, se klokkeslett
Klart  
Klart  
   Vind: SSV 5.1 m/s<br />Gust to 5.1 m/s
Vind: SSV 5.1 m/s
Gust to 5.1 m/s
Temperatur: 7°C
Wind Chill: 4°C
Duggpunkt: 3°C
Luftfuktighet: 76%
Barometer: 1000 hPa
Sikt: More than 10 km
Detaljer skyer: Klart
ENSN 090850Z 20010G22KT 150V240 CAVOK 07/03 Q1000
ENFG - Fagernes
Oppdatert: 22-04-2018 10:50
Oppdatert, se klokkeslett
Klart  
Klart  
   Vind: Sør 3.6 m/s
Vind: Sør 3.6 m/s
Temperatur: 6°C
Wind Chill: 3°C
Duggpunkt: -3°C
Luftfuktighet: 53%
Barometer: 1014 hPa
Sikt: More than 10 km
Detaljer skyer: Klart
ENFG 220850Z 19007KT CAVOK 06/M03 Q1014

Script utviklet av  Saratoga-weather.org Tilpasset for tamplaten av  Weerstation Leuven

Du finner min vær info også på:

European Weather Network

Weather Underground

European Weather Network